Time;durP1;ratioP1;P1;durP2;ratioP2;P2;SDS_P1;SDS_P2;PMS_P1;PMS_P2;Temp;Humidity;BMP_temperature;BMP_pressure;BME280_temperature;BME280_humidity;BME280_pressure;Samples;Min_cycle;Max_cycle;Signal;HPM_P1;HPM_P2
2021/10/06 00:00:02;;;;;;;7.47;2.58;;;10.30;92.20;;;;;;5055149;28;20124;-70
2021/10/06 00:02:30;;;;;;;6.70;1.65;;;10.30;92.30;;;;;;5058557;28;20121;-69
2021/10/06 00:04:57;;;;;;;3.50;1.70;;;10.30;92.00;;;;;;5044977;28;20103;-68
2021/10/06 00:07:24;;;;;;;5.90;1.70;;;10.30;92.00;;;;;;5048989;28;20059;-68
2021/10/06 00:09:51;;;;;;;6.45;1.50;;;10.30;92.00;;;;;;5054610;28;20154;-68
2021/10/06 00:12:18;;;;;;;4.60;1.55;;;10.30;92.00;;;;;;5056313;28;20048;-68
2021/10/06 00:14:45;;;;;;;5.47;1.58;;;10.30;92.20;;;;;;5057214;28;20040;-68
2021/10/06 00:17:23;;;;;;;7.53;1.95;;;10.30;92.00;;;;;;5049725;28;20127;-68
2021/10/06 00:19:50;;;;;;;3.15;1.50;;;10.30;92.00;;;;;;5058064;28;20114;-69
2021/10/06 00:22:18;;;;;;;4.28;1.83;;;10.30;92.00;;;;;;5051520;28;20090;-68
2021/10/06 00:24:44;;;;;;;10.90;2.45;;;10.20;91.80;;;;;;5057388;28;20392;-69
2021/10/06 00:27:11;;;;;;;6.72;2.53;;;10.20;91.80;;;;;;5057331;28;20055;-68
2021/10/06 00:29:38;;;;;;;6.22;1.50;;;10.20;92.00;;;;;;5053678;28;20045;-68
2021/10/06 00:32:05;;;;;;;7.50;2.38;;;10.20;92.20;;;;;;5065147;28;20044;-68
2021/10/06 00:34:32;;;;;;;2.72;1.67;;;10.20;92.40;;;;;;5023717;28;20067;-68
2021/10/06 00:36:59;;;;;;;4.38;1.55;;;10.20;92.20;;;;;;5055940;28;20141;-68
2021/10/06 00:39:26;;;;;;;7.78;1.92;;;10.20;92.10;;;;;;5040913;28;20044;-68
2021/10/06 00:41:53;;;;;;;3.97;1.85;;;10.20;92.10;;;;;;5057697;28;20130;-68
2021/10/06 00:44:21;;;;;;;3.90;1.50;;;10.20;92.00;;;;;;5070502;28;20076;-68
2021/10/06 00:46:48;;;;;;;9.07;2.20;;;10.20;91.90;;;;;;5046172;28;20048;-68
2021/10/06 00:49:16;;;;;;;6.15;1.45;;;10.20;92.10;;;;;;5047860;28;20135;-68
2021/10/06 00:51:43;;;;;;;6.07;1.63;;;10.20;92.10;;;;;;5062018;28;20088;-68
2021/10/06 00:54:10;;;;;;;5.35;1.73;;;10.20;92.00;;;;;;5057941;28;20063;-68
2021/10/06 00:56:37;;;;;;;3.20;1.50;;;10.20;92.30;;;;;;5061439;28;20483;-68
2021/10/06 00:59:04;;;;;;;6.25;1.75;;;10.10;92.30;;;;;;5027171;28;20373;-68
2021/10/06 01:01:31;;;;;;;7.07;2.03;;;10.10;92.30;;;;;;5043944;28;20398;-69
2021/10/06 01:03:58;;;;;;;5.43;1.60;;;10.10;92.20;;;;;;5063552;28;20430;-68
2021/10/06 01:06:25;;;;;;;5.60;1.90;;;10.10;92.30;;;;;;5064246;28;20380;-68
2021/10/06 01:08:52;;;;;;;5.65;1.60;;;10.10;92.60;;;;;;5041628;28;20102;-67
2021/10/06 01:11:21;;;;;;;4.03;1.60;;;10.10;92.20;;;;;;5044405;28;20396;-68
2021/10/06 01:13:48;;;;;;;4.70;1.40;;;10.10;92.50;;;;;;5041093;28;20061;-67
2021/10/06 01:16:15;;;;;;;6.32;2.03;;;10.10;92.70;;;;;;5025709;28;20057;-67
2021/10/06 01:18:42;;;;;;;5.22;1.27;;;10.10;92.70;;;;;;5037979;28;20049;-67
2021/10/06 01:21:18;;;;;;;7.82;2.35;;;10.20;92.50;;;;;;5052891;28;20419;-67
2021/10/06 01:23:47;;;;;;;2.60;1.20;;;10.10;92.50;;;;;;5036229;28;20064;-67
2021/10/06 01:26:20;;;;;;;6.47;1.80;;;10.20;92.50;;;;;;5069538;28;20095;-67
2021/10/06 01:28:48;;;;;;;9.30;2.47;;;10.10;92.50;;;;;;5064512;28;20124;-67
2021/10/06 01:31:15;;;;;;;5.07;2.17;;;10.10;92.50;;;;;;5044363;28;20212;-67
2021/10/06 01:33:42;;;;;;;6.43;1.85;;;10.10;92.30;;;;;;5065616;28;20048;-67
2021/10/06 01:36:09;;;;;;;4.78;1.63;;;10.10;92.30;;;;;;5036273;28;20056;-68
2021/10/06 01:38:36;;;;;;;6.13;1.70;;;10.10;92.40;;;;;;5058639;28;20049;-68
2021/10/06 01:41:03;;;;;;;6.28;1.60;;;10.10;92.30;;;;;;5043056;28;20148;-67
2021/10/06 01:43:30;;;;;;;4.43;1.83;;;10.10;92.10;;;;;;5056678;28;20052;-67
2021/10/06 01:45:57;;;;;;;8.85;1.70;;;10.10;92.30;;;;;;5033670;28;20061;-67
2021/10/06 01:48:24;;;;;;;5.60;1.80;;;10.20;92.30;;;;;;5047313;28;20453;-67
2021/10/06 01:50:50;;;;;;;4.57;2.05;;;10.20;92.20;;;;;;5039853;28;20072;-67
2021/10/06 01:53:19;;;;;;;5.78;1.80;;;10.20;92.20;;;;;;5050752;28;20143;-67
2021/10/06 01:55:46;;;;;;;6.93;2.13;;;10.10;92.10;;;;;;5027865;28;20108;-66
2021/10/06 01:58:18;;;;;;;5.25;1.75;;;10.20;92.20;;;;;;5070215;28;20131;-66
2021/10/06 02:00:47;;;;;;;7.70;1.70;;;10.20;92.30;;;;;;5062801;28;20044;-67
2021/10/06 02:03:14;;;;;;;5.40;1.43;;;10.20;92.10;;;;;;5049736;28;20044;-68
2021/10/06 02:05:41;;;;;;;4.07;1.58;;;10.10;91.90;;;;;;5048656;28;20143;-67
2021/10/06 02:08:09;;;;;;;6.20;1.52;;;10.20;92.00;;;;;;5061007;28;20056;-67
2021/10/06 02:10:36;;;;;;;4.03;1.88;;;10.10;92.00;;;;;;5079521;28;20044;-67
2021/10/06 02:13:03;;;;;;;4.68;1.50;;;10.10;92.10;;;;;;5053622;28;20076;-68
2021/10/06 02:15:31;;;;;;;6.93;1.85;;;10.10;92.10;;;;;;5080175;28;20079;-67
2021/10/06 02:17:58;;;;;;;6.20;1.92;;;10.10;92.20;;;;;;5059244;28;20132;-68
2021/10/06 02:20:25;;;;;;;5.70;1.83;;;10.10;92.30;;;;;;5085657;28;20063;-68
2021/10/06 02:22:52;;;;;;;2.40;1.40;;;10.10;92.40;;;;;;5069514;28;20166;-66
2021/10/06 02:25:19;;;;;;;6.20;1.50;;;10.10;92.60;;;;;;5064871;28;20155;-67
2021/10/06 02:27:47;;;;;;;4.43;1.50;;;10.10;92.40;;;;;;5062772;28;20055;-67
2021/10/06 02:30:14;;;;;;;4.68;2.08;;;10.10;92.40;;;;;;5072260;28;20058;-67
2021/10/06 02:32:41;;;;;;;7.97;2.40;;;10.10;92.70;;;;;;5081194;28;20063;-67
2021/10/06 02:35:08;;;;;;;5.88;1.73;;;10.10;92.50;;;;;;5050585;28;20051;-67
2021/10/06 02:37:36;;;;;;;5.30;1.55;;;10.00;92.50;;;;;;5038955;28;20133;-66
2021/10/06 02:40:04;;;;;;;4.90;1.65;;;10.00;92.40;;;;;;5048000;28;20468;-66
2021/10/06 02:42:31;;;;;;;8.48;2.13;;;10.00;92.40;;;;;;5051643;28;20044;-66
2021/10/06 02:44:58;;;;;;;6.60;1.73;;;10.00;92.60;;;;;;5066009;28;20075;-67
2021/10/06 02:47:25;;;;;;;5.43;1.50;;;10.00;92.60;;;;;;5044427;28;20483;-68
2021/10/06 02:49:55;;;;;;;5.15;1.73;;;10.00;92.70;;;;;;5079093;28;20080;-67
2021/10/06 02:52:22;;;;;;;3.88;1.40;;;10.00;92.70;;;;;;5080463;28;20044;-67
2021/10/06 02:54:49;;;;;;;5.38;1.52;;;10.00;92.70;;;;;;5069794;28;20084;-66
2021/10/06 02:57:16;;;;;;;4.90;1.55;;;10.00;92.70;;;;;;5067919;28;20131;-67
2021/10/06 02:59:43;;;;;;;7.85;1.80;;;10.00;93.00;;;;;;5064945;28;20122;-67
2021/10/06 03:02:10;;;;;;;9.48;1.60;;;10.00;92.70;;;;;;5062958;28;20044;-67
2021/10/06 03:04:37;;;;;;;4.88;1.42;;;10.00;92.90;;;;;;5062522;28;20551;-67
2021/10/06 03:07:04;;;;;;;6.10;2.05;;;9.90;92.80;;;;;;5077431;28;20048;-67
2021/10/06 03:09:31;;;;;;;6.05;1.58;;;9.90;93.00;;;;;;5050369;28;20062;-66
2021/10/06 03:11:58;;;;;;;7.07;1.73;;;9.90;93.20;;;;;;5044434;28;20397;-68
2021/10/06 03:14:25;;;;;;;7.32;2.35;;;9.90;93.30;;;;;;5062066;28;20134;-66
2021/10/06 03:16:52;;;;;;;6.25;1.73;;;9.90;93.20;;;;;;5064131;28;20482;-66
2021/10/06 03:19:19;;;;;;;4.75;1.80;;;9.90;93.30;;;;;;5085367;28;20058;-66
2021/10/06 03:21:46;;;;;;;11.02;1.80;;;9.90;93.20;;;;;;5059130;28;20045;-67
2021/10/06 03:24:13;;;;;;;8.98;2.75;;;9.90;93.30;;;;;;5049388;28;20074;-68
2021/10/06 03:26:40;;;;;;;6.07;1.60;;;9.90;93.50;;;;;;5085646;28;20586;-68
2021/10/06 03:29:07;;;;;;;6.63;1.55;;;9.90;93.50;;;;;;5062147;28;20136;-67
2021/10/06 03:31:34;;;;;;;5.35;1.83;;;9.90;93.40;;;;;;5070144;28;20175;-67
2021/10/06 03:34:01;;;;;;;7.20;1.90;;;9.90;93.30;;;;;;5066051;28;20180;-67
2021/10/06 03:36:27;;;;;;;5.70;1.77;;;9.90;93.50;;;;;;5058663;28;20519;-67
2021/10/06 03:38:54;;;;;;;5.20;1.70;;;9.90;93.60;;;;;;5076648;28;20136;-67
2021/10/06 03:41:21;;;;;;;5.05;1.80;;;9.90;93.30;;;;;;5068932;28;20536;-66
2021/10/06 03:43:48;;;;;;;7.40;2.47;;;9.90;93.60;;;;;;5054378;28;20079;-66
2021/10/06 03:46:15;;;;;;;5.65;2.15;;;9.90;93.50;;;;;;5059928;28;20058;-66
2021/10/06 03:48:44;;;;;;;9.40;2.00;;;9.90;93.60;;;;;;5065763;28;20099;-66
2021/10/06 03:51:11;;;;;;;5.30;2.38;;;9.90;93.50;;;;;;5064020;28;20127;-67
2021/10/06 03:53:39;;;;;;;6.60;1.80;;;9.90;93.10;;;;;;5061454;28;20404;-67
2021/10/06 03:56:06;;;;;;;6.68;1.83;;;9.90;93.60;;;;;;5037497;28;20060;-67
2021/10/06 03:58:34;;;;;;;6.68;2.13;;;9.80;93.40;;;;;;5064223;28;20120;-67
2021/10/06 04:01:02;;;;;;;3.23;1.43;;;9.80;93.60;;;;;;5053718;28;20123;-67
2021/10/06 04:03:31;;;;;;;6.32;1.73;;;9.90;93.40;;;;;;5069947;28;20068;-67
2021/10/06 04:05:58;;;;;;;8.82;2.15;;;9.80;93.30;;;;;;5075084;28;20111;-67
2021/10/06 04:08:25;;;;;;;8.43;1.60;;;9.80;93.30;;;;;;5077016;28;20130;-67
2021/10/06 04:10:53;;;;;;;2.80;1.50;;;9.80;93.80;;;;;;5070391;28;20047;-66
2021/10/06 04:13:20;;;;;;;4.50;1.75;;;9.80;93.40;;;;;;5086722;28;20147;-66
2021/10/06 04:15:47;;;;;;;4.78;1.60;;;9.80;93.30;;;;;;5062858;28;20045;-67
2021/10/06 04:18:14;;;;;;;8.70;1.85;;;9.80;93.40;;;;;;5065112;28;20052;-67
2021/10/06 04:20:40;;;;;;;9.23;2.03;;;9.70;93.50;;;;;;5056435;28;20404;-67
2021/10/06 04:23:07;;;;;;;4.47;1.50;;;9.70;93.50;;;;;;5083959;28;20064;-66
2021/10/06 04:25:39;;;;;;;5.15;1.95;;;9.80;93.50;;;;;;5060145;28;20071;-68
2021/10/06 04:28:06;;;;;;;5.57;1.80;;;9.70;93.30;;;;;;5078832;28;20110;-67
2021/10/06 04:30:33;;;;;;;7.35;2.78;;;9.70;93.40;;;;;;5082818;28;20055;-66
2021/10/06 04:33:01;;;;;;;6.13;1.40;;;9.70;93.50;;;;;;5080655;28;20082;-67
2021/10/06 04:35:28;;;;;;;8.38;2.08;;;9.70;93.50;;;;;;5083718;28;20138;-67
2021/10/06 04:37:55;;;;;;;6.57;2.00;;;9.60;93.50;;;;;;5061732;28;20036;-68
2021/10/06 04:40:22;;;;;;;4.60;1.75;;;9.60;93.50;;;;;;5079908;28;20059;-68
2021/10/06 04:42:50;;;;;;;6.78;2.47;;;9.60;93.70;;;;;;5069167;28;20393;-68
2021/10/06 04:45:17;;;;;;;5.57;1.60;;;9.60;93.70;;;;;;5045576;28;20054;-68
2021/10/06 04:47:44;;;;;;;8.23;1.70;;;9.50;93.80;;;;;;5058844;28;20059;-68
2021/10/06 04:50:11;;;;;;;7.90;1.90;;;9.50;93.80;;;;;;5085846;28;20153;-68
2021/10/06 04:52:38;;;;;;;7.03;1.90;;;9.50;93.90;;;;;;5074961;28;20044;-67
2021/10/06 04:55:06;;;;;;;7.07;1.92;;;9.50;93.90;;;;;;5059903;28;20048;-67
2021/10/06 04:57:33;;;;;;;4.32;1.45;;;9.50;94.10;;;;;;5061993;28;20400;-68
2021/10/06 05:00:00;;;;;;;5.30;2.30;;;9.50;94.30;;;;;;5056849;28;20381;-69
2021/10/06 05:02:27;;;;;;;3.38;1.60;;;9.40;94.00;;;;;;5069922;28;20055;-67
2021/10/06 05:04:54;;;;;;;5.80;1.65;;;9.50;94.20;;;;;;5054439;28;20044;-67
2021/10/06 05:07:21;;;;;;;7.38;1.73;;;9.50;94.10;;;;;;5058625;28;20048;-67
2021/10/06 05:09:48;;;;;;;3.97;1.40;;;9.50;94.00;;;;;;5078972;28;20079;-67
2021/10/06 05:12:15;;;;;;;7.85;3.17;;;9.40;94.10;;;;;;5073497;28;20127;-67
2021/10/06 05:14:42;;;;;;;3.42;1.90;;;9.40;94.20;;;;;;5077143;28;20450;-67
2021/10/06 05:17:08;;;;;;;5.85;1.45;;;9.40;94.40;;;;;;5058521;28;20040;-67
2021/10/06 05:19:35;;;;;;;7.20;1.58;;;9.40;94.30;;;;;;5079921;28;20456;-67
2021/10/06 05:22:02;;;;;;;5.07;1.73;;;9.40;94.40;;;;;;5070397;28;20408;-67
2021/10/06 05:24:29;;;;;;;4.10;1.70;;;9.40;94.50;;;;;;5051449;28;20094;-68
2021/10/06 05:26:56;;;;;;;6.60;1.83;;;9.40;94.20;;;;;;5080510;28;20567;-67
2021/10/06 05:29:23;;;;;;;6.35;2.15;;;9.40;94.30;;;;;;5064967;28;20048;-66
2021/10/06 05:31:50;;;;;;;9.02;1.73;;;9.40;94.30;;;;;;5081339;28;20139;-66
2021/10/06 05:34:17;;;;;;;8.23;2.78;;;9.40;94.40;;;;;;5050242;28;20127;-66
2021/10/06 05:36:45;;;;;;;6.40;2.22;;;9.40;94.30;;;;;;5063942;28;20487;-66
2021/10/06 05:39:11;;;;;;;5.38;1.88;;;9.30;94.50;;;;;;5068621;28;20104;-67
2021/10/06 05:41:38;;;;;;;4.70;2.40;;;9.30;94.50;;;;;;5073905;28;20040;-66
2021/10/06 05:44:05;;;;;;;7.85;2.20;;;9.30;94.40;;;;;;5047462;28;20036;-64
2021/10/06 05:46:32;;;;;;;158.13;111.57;;;9.30;94.50;;;;;;5043383;28;20045;-68
2021/10/06 05:48:59;;;;;;;53.22;38.03;;;9.40;94.90;;;;;;5052508;28;20559;-69
2021/10/06 05:51:31;;;;;;;7.72;5.07;;;9.40;94.60;;;;;;5066697;28;20054;-74
2021/10/06 05:53:58;;;;;;;4.93;2.70;;;9.30;94.50;;;;;;5079710;28;20922;-69
2021/10/06 05:56:25;;;;;;;6.80;2.22;;;9.30;94.50;;;;;;5080235;28;20139;-69
2021/10/06 05:58:52;;;;;;;4.38;1.60;;;9.30;94.60;;;;;;5066484;28;20040;-69
2021/10/06 06:01:19;;;;;;;4.20;1.95;;;9.30;94.70;;;;;;5046241;28;20123;-70
2021/10/06 06:03:46;;;;;;;7.07;2.17;;;9.30;94.70;;;;;;5075480;28;20067;-69
2021/10/06 06:06:13;;;;;;;20.33;10.65;;;9.30;94.60;;;;;;5064931;28;20131;-66
2021/10/06 06:08:40;;;;;;;32.78;20.58;;;9.30;94.80;;;;;;5087314;28;20134;-66
2021/10/06 06:11:07;;;;;;;9.18;3.72;;;9.40;94.70;;;;;;5090848;28;20135;-66
2021/10/06 06:13:34;;;;;;;9.77;2.63;;;9.30;94.70;;;;;;5088478;28;20083;-66
2021/10/06 06:16:03;;;;;;;4.43;1.98;;;9.40;94.80;;;;;;5080497;28;20491;-64
2021/10/06 06:18:30;;;;;;;7.53;1.83;;;9.40;94.70;;;;;;5059982;28;20098;-65
2021/10/06 06:20:57;;;;;;;5.78;2.55;;;9.40;94.40;;;;;;5072087;28;20108;-65
2021/10/06 06:23:26;;;;;;;6.18;2.63;;;9.40;94.70;;;;;;5071975;28;20441;-66
2021/10/06 06:25:52;;;;;;;3.50;1.70;;;9.40;94.50;;;;;;5054283;28;20100;-65
2021/10/06 06:28:22;;;;;;;5.20;1.58;;;9.40;94.80;;;;;;5071981;28;20511;-66
2021/10/06 06:30:50;;;;;;;5.55;1.98;;;9.40;94.50;;;;;;5072207;28;20140;-66
2021/10/06 06:33:17;;;;;;;8.77;2.10;;;9.40;94.40;;;;;;5072256;28;20495;-65
2021/10/06 06:35:44;;;;;;;7.90;2.20;;;9.50;94.40;;;;;;5054163;28;20044;-65
2021/10/06 06:38:12;;;;;;;8.80;3.08;;;9.40;94.70;;;;;;5053997;28;20052;-66
2021/10/06 06:40:41;;;;;;;7.82;2.00;;;9.40;94.30;;;;;;5066609;28;20128;-66
2021/10/06 06:43:11;;;;;;;4.85;2.05;;;9.40;94.50;;;;;;5071435;28;20044;-70
2021/10/06 06:45:38;;;;;;;4.18;1.70;;;9.50;94.30;;;;;;5070276;28;20048;-70
2021/10/06 06:48:05;;;;;;;3.00;1.80;;;9.50;94.30;;;;;;5065823;28;20123;-70
2021/10/06 06:50:44;;;;;;;7.32;1.90;;;9.50;94.20;;;;;;5060335;28;20479;-70
2021/10/06 06:53:11;;;;;;;5.38;2.00;;;9.50;94.40;;;;;;5065858;28;20488;-70
2021/10/06 06:55:38;;;;;;;6.80;1.95;;;9.60;94.10;;;;;;5066577;28;20040;-70
2021/10/06 06:58:05;;;;;;;7.97;4.80;;;9.60;94.30;;;;;;5049132;28;20533;-65
2021/10/06 07:00:32;;;;;;;40.78;31.40;;;9.60;94.10;;;;;;5056728;28;20095;-67
2021/10/06 07:03:00;;;;;;;18.23;12.63;;;9.70;94.00;;;;;;5058391;28;20044;-64
2021/10/06 07:05:29;;;;;;;;;;;9.70;94.50;;;;;;5039078;28;20092;-64
2021/10/06 07:07:56;;;;;;;4.88;2.60;;;9.70;93.70;;;;;;5073140;28;19935;-63
2021/10/06 07:10:23;;;;;;;10.90;2.83;;;9.70;94.00;;;;;;5082356;28;20130;-61
2021/10/06 07:12:50;;;;;;;7.13;2.13;;;9.70;93.90;;;;;;5069237;28;20051;-62
2021/10/06 07:15:17;;;;;;;3.42;1.63;;;9.80;93.90;;;;;;5058645;28;20064;-68
2021/10/06 07:17:44;;;;;;;5.90;1.95;;;9.80;93.80;;;;;;5055055;28;20115;-68
2021/10/06 07:20:12;;;;;;;5.47;1.60;;;9.80;93.80;;;;;;5056654;28;20110;-63
2021/10/06 07:22:39;;;;;;;122.45;78.60;;;9.80;93.80;;;;;;5037962;28;20123;-65
2021/10/06 07:25:06;;;;;;;14.48;7.82;;;9.90;93.80;;;;;;5056570;28;20123;-64
2021/10/06 07:27:33;;;;;;;8.02;2.83;;;9.90;94.00;;;;;;5072833;28;20048;-64
2021/10/06 07:30:02;;;;;;;7.05;2.70;;;9.90;93.90;;;;;;5064147;28;20128;-65
2021/10/06 07:32:29;;;;;;;12.32;2.38;;;10.00;93.60;;;;;;5053360;28;20116;-64
2021/10/06 07:34:56;;;;;;;4.60;1.70;;;10.00;93.60;;;;;;5070631;28;20407;-64
2021/10/06 07:37:23;;;;;;;5.13;1.92;;;10.00;93.60;;;;;;5053464;28;20411;-65
2021/10/06 07:39:50;;;;;;;4.75;1.80;;;10.10;93.60;;;;;;5070597;28;20048;-63
2021/10/06 07:42:17;;;;;;;5.65;1.45;;;10.10;93.40;;;;;;5064080;28;20075;-69
2021/10/06 07:44:45;;;;;;;7.22;2.25;;;10.20;93.10;;;;;;5066381;28;20097;-64
2021/10/06 07:47:12;;;;;;;6.75;1.92;;;10.20;92.80;;;;;;5075305;28;20434;-64
2021/10/06 07:49:39;;;;;;;8.52;2.33;;;10.30;92.60;;;;;;5038780;28;20052;-65
2021/10/06 07:52:07;;;;;;;11.27;1.95;;;10.40;92.40;;;;;;5063081;28;20131;-64
2021/10/06 07:54:34;;;;;;;5.45;1.60;;;10.40;92.70;;;;;;5051935;28;20056;-65
2021/10/06 07:57:01;;;;;;;6.97;1.98;;;10.40;92.40;;;;;;5068857;28;20493;-65
2021/10/06 07:59:28;;;;;;;4.72;1.42;;;10.50;92.30;;;;;;5056783;28;20455;-65
2021/10/06 08:01:55;;;;;;;5.22;2.42;;;10.50;92.40;;;;;;5070637;28;20119;-65
2021/10/06 08:04:24;;;;;;;3.47;1.75;;;10.60;92.30;;;;;;5052805;28;20106;-64
2021/10/06 08:06:51;;;;;;;6.20;1.63;;;10.60;92.20;;;;;;5053433;28;20488;-64
2021/10/06 08:09:18;;;;;;;5.38;1.95;;;10.60;92.10;;;;;;5052057;28;20104;-66
2021/10/06 08:11:46;;;;;;;6.55;2.08;;;10.70;92.10;;;;;;5053518;28;20044;-66
2021/10/06 08:14:13;;;;;;;5.72;2.28;;;10.80;91.60;;;;;;5072999;28;20049;-64
2021/10/06 08:16:40;;;;;;;5.47;2.10;;;10.80;90.90;;;;;;5076532;28;20052;-67
2021/10/06 08:19:07;;;;;;;95.68;64.95;;;10.90;91.20;;;;;;5052965;28;20052;-63
2021/10/06 08:21:34;;;;;;;26.33;14.02;;;11.00;91.20;;;;;;5055981;28;20053;-64
2021/10/06 08:24:01;;;;;;;9.05;3.08;;;11.00;90.40;;;;;;5046008;28;20084;-65
2021/10/06 08:26:28;;;;;;;9.45;2.00;;;11.10;90.80;;;;;;5035346;28;20059;-66
2021/10/06 08:28:55;;;;;;;6.68;2.30;;;11.20;90.70;;;;;;5070518;28;20056;-65
2021/10/06 08:31:23;;;;;;;7.28;2.00;;;11.20;90.50;;;;;;5052564;28;20060;-66
2021/10/06 08:33:52;;;;;;;7.78;1.92;;;11.20;90.10;;;;;;5072833;28;20123;-72
2021/10/06 08:36:19;;;;;;;;;;;11.20;90.10;;;;;;5037812;28;20052;-67
2021/10/06 08:38:46;;;;;;;3.20;1.80;;;11.30;88.60;;;;;;5055222;28;20047;-68
2021/10/06 08:41:17;;;;;;;7.95;1.60;;;11.30;88.90;;;;;;5070822;28;20044;-68
2021/10/06 08:43:44;;;;;;;5.45;2.00;;;11.30;89.50;;;;;;5071235;28;20459;-68
2021/10/06 08:46:11;;;;;;;3.67;1.58;;;11.40;89.70;;;;;;5052028;28;20131;-68
2021/10/06 08:48:38;;;;;;;6.70;1.95;;;11.50;88.60;;;;;;5068659;28;20049;-68
2021/10/06 08:51:05;;;;;;;6.63;1.80;;;11.50;88.50;;;;;;5068775;28;20051;-68
2021/10/06 08:53:46;;;;;;;7.47;2.03;;;11.60;88.70;;;;;;5068995;28;20106;-68
2021/10/06 08:56:13;;;;;;;7.97;1.92;;;11.60;88.60;;;;;;5034821;28;20284;-68
2021/10/06 08:58:40;;;;;;;5.55;1.75;;;11.70;88.50;;;;;;5069860;28;20577;-68
2021/10/06 09:01:07;;;;;;;9.73;1.95;;;11.70;89.30;;;;;;5051980;28;20559;-68
2021/10/06 09:03:36;;;;;;;6.22;1.80;;;11.70;87.70;;;;;;5036202;28;20084;-69
2021/10/06 09:06:10;;;;;;;10.32;2.05;;;11.80;86.20;;;;;;5055747;28;20481;-69
2021/10/06 09:08:38;;;;;;;5.03;1.67;;;11.80;87.00;;;;;;5039254;28;20065;-69
2021/10/06 09:11:06;;;;;;;8.88;1.90;;;11.90;86.50;;;;;;5055198;28;20520;-68
2021/10/06 09:13:34;;;;;;;4.45;1.52;;;11.90;87.20;;;;;;5039149;28;20496;-68
2021/10/06 09:16:02;;;;;;;6.07;1.98;;;12.00;86.00;;;;;;5055763;28;20059;-69
2021/10/06 09:18:32;;;;;;;17.92;2.35;;;12.10;86.30;;;;;;5055797;28;20045;-69
2021/10/06 09:21:04;;;;;;;4.10;1.38;;;12.20;86.10;;;;;;5055604;28;20131;-69
2021/10/06 09:23:35;;;;;;;6.70;2.22;;;12.30;85.40;;;;;;5055454;28;20127;-69
2021/10/06 09:26:05;;;;;;;8.90;2.38;;;12.40;84.60;;;;;;5071313;28;20488;-69
2021/10/06 09:28:32;;;;;;;;;;;12.40;82.50;;;;;;5072565;28;20132;-69
2021/10/06 09:31:06;;;;;;;6.95;2.35;;;12.40;83.10;;;;;;5073130;28;19943;-69
2021/10/06 09:33:53;;;;;;;7.47;1.92;;;12.60;83.10;;;;;;5073843;28;20139;-69
2021/10/06 09:36:24;;;;;;;7.38;2.63;;;12.60;84.00;;;;;;5037070;28;20160;-69
2021/10/06 09:38:53;;;;;;;8.68;2.03;;;12.60;82.50;;;;;;5035932;28;20053;-69
2021/10/06 09:41:27;;;;;;;9.23;2.50;;;12.60;81.00;;;;;;5034766;28;20041;-69
2021/10/06 09:44:00;;;;;;;6.55;2.50;;;12.60;82.20;;;;;;5055863;28;20076;-69
2021/10/06 09:46:53;;;;;;;6.35;2.60;;;12.70;80.50;;;;;;5058100;28;20132;-69
2021/10/06 09:49:29;;;;;;;7.30;2.67;;;12.70;82.00;;;;;;5072803;28;20057;-69
2021/10/06 09:52:14;;;;;;;8.98;2.88;;;12.70;80.40;;;;;;5057468;28;20098;-69
2021/10/06 09:54:48;;;;;;;9.32;2.85;;;12.70;79.50;;;;;;5072066;28;20131;-69
2021/10/06 09:57:31;;;;;;;13.50;2.95;;;12.80;79.10;;;;;;5054840;28;20096;-69
2021/10/06 10:00:13;;;;;;;6.28;2.17;;;12.90;80.20;;;;;;5034810;28;20181;-69
2021/10/06 10:02:40;;;;;;;5.15;1.88;;;12.90;78.50;;;;;;5035909;28;20480;-69
2021/10/06 10:05:08;;;;;;;10.40;2.67;;;12.80;79.60;;;;;;5042979;28;20056;-69
2021/10/06 10:07:35;;;;;;;5.88;1.90;;;12.80;80.10;;;;;;5034803;28;20579;-69
2021/10/06 10:10:03;;;;;;;8.55;2.33;;;12.90;79.00;;;;;;5034834;28;20057;-69
2021/10/06 10:12:30;;;;;;;6.70;2.45;;;13.00;77.00;;;;;;5052089;28;20053;-68
2021/10/06 10:14:58;;;;;;;6.30;2.47;;;13.00;78.50;;;;;;5045909;28;20127;-68
2021/10/06 10:17:27;;;;;;;7.03;2.85;;;13.00;78.80;;;;;;5055042;28;20058;-68
2021/10/06 10:20:02;;;;;;;6.93;2.58;;;13.00;79.50;;;;;;5072578;28;20138;-68
2021/10/06 10:22:37;;;;;;;5.40;1.75;;;13.00;78.60;;;;;;5054214;28;20131;-68
2021/10/06 10:25:21;;;;;;;5.45;1.70;;;13.10;77.80;;;;;;5038864;28;20139;-68
2021/10/06 10:27:55;;;;;;;6.80;2.35;;;13.10;77.40;;;;;;5054487;28;20162;-68
2021/10/06 10:30:22;;;;;;;9.20;2.20;;;13.10;77.80;;;;;;5072337;28;20087;-69
2021/10/06 10:32:49;;;;;;;9.05;2.13;;;13.10;79.00;;;;;;5072356;28;20083;-69
2021/10/06 10:35:20;;;;;;;7.63;2.42;;;13.10;78.00;;;;;;5070575;28;20564;-69
2021/10/06 10:37:47;;;;;;;4.88;1.63;;;13.20;77.10;;;;;;5054751;28;20080;-69
2021/10/06 10:40:50;;;;;;;10.40;2.45;;;13.20;78.80;;;;;;5054078;28;20045;-69
2021/10/06 10:43:18;;;;;;;9.93;2.40;;;13.20;77.60;;;;;;4988766;28;20081;-69
2021/10/06 10:45:49;;;;;;;5.75;1.90;;;13.30;79.30;;;;;;5062320;28;20114;-77
2021/10/06 10:48:18;;;;;;;74.95;60.15;;;13.30;77.30;;;;;;5064534;28;20759;-64
2021/10/06 10:50:45;;;;;;;23.42;15.65;;;13.40;77.40;;;;;;5056776;28;20076;-63
2021/10/06 10:53:18;;;;;;;10.35;4.35;;;13.40;76.90;;;;;;5072196;28;20135;-63
2021/10/06 10:55:56;;;;;;;9.13;2.28;;;13.50;76.20;;;;;;5040708;28;20092;-63
2021/10/06 10:58:32;;;;;;;6.70;2.00;;;13.50;76.70;;;;;;5068886;28;20051;-70
2021/10/06 11:01:18;;;;;;;4.60;2.20;;;13.50;75.20;;;;;;5044971;28;20484;-69
2021/10/06 11:04:06;;;;;;;10.25;2.10;;;13.50;76.90;;;;;;5064101;28;20051;-69
2021/10/06 11:06:37;;;;;;;4.65;1.95;;;13.50;75.50;;;;;;5068025;28;20063;-69
2021/10/06 11:09:31;;;;;;;12.68;2.42;;;13.50;76.90;;;;;;5058671;28;20048;-69
2021/10/06 11:12:08;;;;;;;7.40;2.10;;;13.60;75.80;;;;;;5065521;28;20139;-71
2021/10/06 11:14:36;;;;;;;4.45;2.00;;;13.60;74.10;;;;;;5071768;28;20053;-67
2021/10/06 11:17:19;;;;;;;6.77;2.07;;;13.60;74.10;;;;;;5042818;28;20138;-67
2021/10/06 11:19:50;;;;;;;4.53;2.08;;;13.70;75.00;;;;;;5047790;28;20082;-75
2021/10/06 11:22:23;;;;;;;5.03;1.77;;;13.80;75.00;;;;;;5037138;28;20123;-76
2021/10/06 11:24:51;;;;;;;10.02;2.97;;;13.80;76.80;;;;;;5054432;28;20060;-74
2021/10/06 11:27:18;;;;;;;6.50;1.77;;;13.90;75.70;;;;;;5072413;28;20515;-75
2021/10/06 11:29:46;;;;;;;7.63;1.85;;;13.90;75.70;;;;;;5055008;28;20056;-75
2021/10/06 11:32:13;;;;;;;11.32;2.15;;;14.00;76.10;;;;;;5040724;28;20083;-75
2021/10/06 11:34:46;;;;;;;8.30;1.70;;;14.10;73.00;;;;;;5061949;28;20106;-76
2021/10/06 11:37:17;;;;;;;10.38;2.40;;;14.10;74.90;;;;;;5078042;28;20407;-73
2021/10/06 11:39:44;;;;;;;7.25;2.25;;;14.20;76.50;;;;;;5062414;28;20055;-62
2021/10/06 11:42:11;;;;;;;6.22;1.80;;;14.40;74.20;;;;;;5078935;28;20044;-67
2021/10/06 11:44:39;;;;;;;7.32;1.92;;;14.90;74.70;;;;;;5066877;28;20131;-70
2021/10/06 11:47:11;;;;;;;8.18;1.80;;;15.20;72.70;;;;;;5068514;28;20087;-72
2021/10/06 11:49:43;;;;;;;8.77;2.40;;;15.20;73.50;;;;;;5060416;28;20072;-65
2021/10/06 11:52:12;;;;;;;8.50;2.03;;;15.20;72.10;;;;;;5061642;28;20524;-71
2021/10/06 11:54:39;;;;;;;12.45;3.05;;;15.40;73.10;;;;;;5055123;28;20048;-72
2021/10/06 11:57:07;;;;;;;4.22;2.20;;;15.60;69.90;;;;;;5065398;28;20167;-75
2021/10/06 11:59:35;;;;;;;10.23;4.68;;;15.50;69.70;;;;;;5061892;28;20459;-76
2021/10/06 12:02:06;;;;;;;18.38;12.70;;;15.20;68.50;;;;;;5046584;28;20071;-76
2021/10/06 12:04:35;;;;;;;12.45;5.97;;;15.10;69.60;;;;;;5066140;28;20055;-81
2021/10/06 12:07:09;;;;;;;4.45;2.83;;;15.00;70.40;;;;;;5053981;28;20054;-70
2021/10/06 12:09:41;;;;;;;5.90;2.00;;;15.00;71.90;;;;;;5061755;28;20045;-69
2021/10/06 12:12:10;;;;;;;7.68;2.42;;;15.00;71.10;;;;;;5045543;28;20044;-70
2021/10/06 12:14:53;;;;;;;6.78;2.20;;;15.00;70.90;;;;;;5056703;28;20120;-74
2021/10/06 12:17:24;;;;;;;8.07;1.92;;;15.00;71.20;;;;;;5039208;28;20055;-64
2021/10/06 12:19:59;;;;;;;11.63;3.15;;;15.00;72.10;;;;;;5079481;28;20062;-70
2021/10/06 12:22:34;;;;;;;8.95;4.53;;;15.00;70.20;;;;;;5042871;28;20472;-72
2021/10/06 12:25:15;;;;;;;16.45;7.30;;;15.00;70.20;;;;;;5053061;28;20128;-71
2021/10/06 12:27:47;;;;;;;9.18;3.38;;;14.90;70.00;;;;;;5065373;28;20128;-71
2021/10/06 12:30:27;;;;;;;11.57;2.60;;;14.90;70.30;;;;;;5071001;28;20084;-69
2021/10/06 12:33:14;;;;;;;5.35;1.73;;;14.90;70.20;;;;;;5063530;28;20142;-68
2021/10/06 12:35:45;;;;;;;6.10;1.88;;;15.00;71.10;;;;;;5075222;28;20040;-71
2021/10/06 12:38:12;;;;;;;7.50;3.67;;;15.00;68.20;;;;;;5071325;28;20130;-70
2021/10/06 12:40:46;;;;;;;5.28;2.00;;;15.10;67.00;;;;;;5072670;28;20405;-73
2021/10/06 12:43:18;;;;;;;7.63;2.22;;;15.10;68.80;;;;;;5076607;28;20076;-70
2021/10/06 12:46:04;;;;;;;6.80;1.85;;;15.10;67.10;;;;;;5043153;28;20056;-70
2021/10/06 12:48:50;;;;;;;7.70;1.88;;;15.10;68.00;;;;;;5089627;28;20040;-70
2021/10/06 12:51:19;;;;;;;9.50;2.00;;;15.20;67.50;;;;;;5087526;28;20040;-69
2021/10/06 12:53:55;;;;;;;10.52;2.55;;;15.20;66.70;;;;;;5059862;28;20048;-70
2021/10/06 12:56:52;;;;;;;6.85;2.00;;;15.10;68.00;;;;;;5079833;28;20493;-71
2021/10/06 12:59:28;;;;;;;6.57;2.08;;;15.10;65.70;;;;;;5083467;28;20541;-74